»·PEaware :: N75232 KBUR-KSNA

N75232 :: KBUR-KSNA

FLIGHT INFORMATION

Flight Status: Arrived
Operator: Privately registered:
United States
More flights under this callsign
Pilot: Daniel B. (28719)
Aircraft: CESSNA 172 SKYHAWK
(C172)
More flights by this aircraft type
Origin: KBUR Bob Hope-Burbank
United States
Destination: KSNA John Wayne-Orange Co
United States
More flights between these airports :: More routes between these airports
Route: ELMOO9 ELMOO V186 BAYJY V363 POXKU V8 SLI
File this flight plan on PilotEdge
Remarks:
Altitude:
(Current/Filed)
7,000ft
Speed:
(Current/Filed)
115kts
Departed: 07-May-20 07:05 PM
Arrived: 07-May-20 07:46 PM
Distance/Time
Traveled:
40nm/0:40
Distance/Time
To Go:
Arrived

Flight Plot

Page will automatically refresh every two minutes.

Flight plan parsing failed; only flown route is shown


Map Options




Map Legend


Flown Route
Filed Route
Departure Airport
Arrival Airport
Navaid (VOR, NDB)
Fix

Horizontal Profiles

Position Reports

Time Latitude Longitude Heading Altitude Ground
Speed
07-May-20 18:21 34.199535 -118.359410 345 719ft 0kts
07-May-20 18:22 34.199535 -118.359410 345 719ft 0kts
07-May-20 18:23 34.199535 -118.359410 345 719ft 0kts
07-May-20 18:24 34.199535 -118.359410 345 719ft 0kts
07-May-20 18:25 34.199535 -118.359410 345 719ft 0kts
07-May-20 18:26 34.199535 -118.359410 345 719ft 0kts
07-May-20 18:27 34.199535 -118.359410 345 719ft 0kts
07-May-20 18:28 34.199535 -118.359410 345 719ft 0kts
07-May-20 18:29 34.199535 -118.359410 345 719ft 0kts
07-May-20 18:30 34.199535 -118.359410 345 719ft 0kts
07-May-20 18:31 34.199535 -118.359410 345 719ft 0kts
07-May-20 18:32 34.199535 -118.359410 345 719ft 0kts
07-May-20 18:33 34.199535 -118.359410 345 719ft 0kts
07-May-20 18:34 34.199535 -118.359410 345 719ft 0kts
07-May-20 18:35 34.199535 -118.359410 345 719ft 0kts
07-May-20 18:36 34.199535 -118.359410 345 719ft 0kts
07-May-20 18:37 34.199535 -118.359410 345 719ft 0kts
07-May-20 18:38 34.199535 -118.359410 345 719ft 0kts
07-May-20 18:39 34.199535 -118.359410 345 719ft 0kts
07-May-20 18:40 34.199535 -118.359410 345 719ft 0kts
07-May-20 18:41 34.199535 -118.359410 345 719ft 0kts
07-May-20 18:42 34.199535 -118.359410 345 719ft 0kts
07-May-20 18:44 34.199535 -118.359410 345 719ft 0kts
07-May-20 18:45 34.199535 -118.359410 345 719ft 0kts
07-May-20 18:46 34.199535 -118.359410 345 719ft 0kts
07-May-20 18:47 34.199535 -118.359410 345 719ft 0kts
07-May-20 18:48 34.199535 -118.359410 345 719ft 0kts
07-May-20 18:49 34.199535 -118.359410 345 719ft 0kts
07-May-20 18:50 34.199535 -118.359410 345 719ft 0kts
07-May-20 18:51 34.199535 -118.359410 345 719ft 0kts
07-May-20 18:52 34.199535 -118.359410 345 719ft 0kts
07-May-20 18:53 34.199535 -118.359410 345 719ft 0kts
07-May-20 18:54 34.199535 -118.359410 345 719ft 0kts
07-May-20 18:55 34.199535 -118.359410 345 719ft 0kts
07-May-20 18:56 34.199536 -118.359410 345 719ft 0kts
07-May-20 18:57 34.199535 -118.359410 345 719ft 0kts
07-May-20 18:58 34.199191 -118.359520 238 718ft 9kts
07-May-20 18:59 34.198910 -118.360580 262 719ft 15kts
07-May-20 18:59 34.198972 -118.363896 277 724ft 19kts
07-May-20 19:01 34.198980 -118.368850 226 727ft 17kts
07-May-20 19:02 34.198677 -118.369015 180 726ft 0kts
07-May-20 19:02 34.198677 -118.369015 180 726ft 0kts
07-May-20 19:04 34.198667 -118.369015 180 726ft 1kts
07-May-20 19:04 34.197871 -118.365582 91 723ft 64kts
07-May-20 19:05 34.195134 -118.347792 140 1172ft 81kts
07-May-20 19:07 34.183122 -118.334976 138 1703ft 84kts
07-May-20 19:07 34.174415 -118.325415 138 2096ft 83kts
07-May-20 19:08 34.167691 -118.308411 110 2570ft 87kts
07-May-20 19:09 34.162114 -118.289304 110 3028ft 89kts
07-May-20 19:10 34.156502 -118.269906 112 3469ft 90kts
07-May-20 19:11 34.150185 -118.251345 110 3916ft 88kts
07-May-20 19:12 34.144755 -118.232044 109 4340ft 89kts
07-May-20 19:13 34.139898 -118.212795 107 4800ft 86kts
07-May-20 19:14 34.133927 -118.192769 113 5026ft 107kts
07-May-20 19:15 34.125554 -118.170052 115 5048ft 114kts
07-May-20 19:16 34.116328 -118.146380 115 5042ft 116kts
07-May-20 19:17 34.106949 -118.121176 113 5024ft 117kts
07-May-20 19:18 34.098164 -118.095511 113 5011ft 117kts
07-May-20 19:19 34.089726 -118.070171 112 5000ft 117kts
07-May-20 19:20 34.081209 -118.043671 109 4860ft 125kts
07-May-20 19:21 34.076014 -118.012762 104 4416ft 132kts
07-May-20 19:22 34.068622 -117.983942 113 4048ft 127kts
07-May-20 19:23 34.060107 -117.958472 114 4012ft 118kts
07-May-20 19:24 34.051141 -117.931173 112 4041ft 115kts
07-May-20 19:25 34.043164 -117.903039 111 4047ft 118kts
07-May-20 19:26 34.034945 -117.874339 113 4037ft 119kts
07-May-20 19:27 34.025500 -117.846895 114 4056ft 118kts
07-May-20 19:28 34.014435 -117.817952 128 4016ft 120kts
07-May-20 19:29 33.999552 -117.791122 164 4037ft 112kts
07-May-20 19:30 33.971528 -117.785162 178 4032ft 111kts
07-May-20 19:31 33.944150 -117.785153 180 4077ft 107kts
07-May-20 19:32 33.918569 -117.786515 180 3820ft 118kts
07-May-20 19:33 33.892944 -117.786932 179 3513ft 123kts
07-May-20 19:34 33.863393 -117.787486 180 3109ft 120kts
07-May-20 19:35 33.837516 -117.788816 182 3004ft 109kts
07-May-20 19:36 33.815938 -117.791184 182 2980ft 88kts
07-May-20 19:37 33.798017 -117.790348 209 2831ft 88kts
07-May-20 19:38 33.780367 -117.803264 207 2337ft 106kts
07-May-20 19:39 33.762714 -117.814032 206 1942ft 89kts
07-May-20 19:40 33.747368 -117.823759 205 1610ft 88kts
07-May-20 19:41 33.729867 -117.834730 205 1211ft 89kts
07-May-20 19:42 33.713075 -117.845260 206 796ft 85kts
07-May-20 19:43 33.696384 -117.855757 205 437ft 85kts
07-May-20 19:44 33.682558 -117.864421 206 134ft 54kts
07-May-20 19:45 33.677345 -117.866675 118 60ft 0kts
07-May-20 19:46 33.677345 -117.866675 118 60ft 0kts
07-May-20 19:47 33.677345 -117.866675 118 60ft 0kts
07-May-20 19:48 33.677345 -117.866675 118 60ft 0kts
07-May-20 19:49 33.677345 -117.866675 118 60ft 0kts
07-May-20 19:50 33.677345 -117.866675 118 60ft 0kts
07-May-20 19:51 33.675830 -117.865380 205 60ft 8kts
07-May-20 19:52 33.673767 -117.865633 125 60ft 5kts
07-May-20 19:53 33.671775 -117.868153 129 60ft 7kts
07-May-20 19:54 33.671468 -117.867362 210 60ft 0kts
07-May-20 19:55 33.671468 -117.867362 210 60ft 0kts

Navigation Log

Ident Type
Flight plan parsing failed, navigation log unavailable